^^
Saratoga-Weather Station Historical Data
Daily Summary for April 26, 2020 Units:  Both    English   Metric
Daily Weekly Monthly Yearly Custom
  High: Low: Average:
Temperature: 76.3 °F /  24.6 °C 51.1 °F /  10.6 °C 63.3 °F /  17.4 °C
Dew Point: 52.9 °F /  11.6 °C 45.9 °F /  7.7 °C 49.6 °F /  9.8 °C
Humidity: 90% 37% 64%
Wind Speed: 11mph /  17.7km/h - 1.8mph /  2.9km/h
Wind Gust: 13mph /  20.9km/h - -
Wind- - SSE
Pressure: 30.5 in /  1033.5 hPa 30.4 in /  1030.8 hPa -
Precipitation: 0 in /  0.0 mm    
Historical Graphs
 
 
Tabular Data for April 26, 2020
Time Temperature Dew Point Pressure Wind Wind Speed Wind Gust Humidity Rainfall Rate (Hourly) solar
00:00 55.6 °F /  13.1 °C 50.5 °F /  10.3 °C 30.5in /  1032.5hPa Calm   1mph /  1.6km/h 83% 0in /  0.0mm 0 W/m2
00:05 55.9 °F /  13.3 °C 50.9 °F /  10.5 °C 30.5in /  1032.5hPa Calm   1mph /  1.6km/h 83% 0in /  0.0mm 0 W/m2
00:10 56.1 °F /  13.4 °C 50.7 °F /  10.4 °C 30.5in /  1032.5hPa Calm   2mph /  3.2km/h 82% 0in /  0.0mm 0 W/m2
00:15 56.3 °F /  13.5 °C 50.9 °F /  10.5 °C 30.5in /  1032.5hPa Calm   3mph /  4.8km/h 82% 0in /  0.0mm 0 W/m2
00:20 56.5 °F /  13.6 °C 50.7 °F /  10.4 °C 30.5in /  1032.5hPa Calm     81% 0in /  0.0mm 0 W/m2
00:25 56.5 °F /  13.6 °C 50.7 °F /  10.4 °C 30.5in /  1032.5hPa Calm     81% 0in /  0.0mm 0 W/m2
00:30 56.5 °F /  13.6 °C 50.7 °F /  10.4 °C 30.5in /  1032.5hPa Calm     81% 0in /  0.0mm 0 W/m2
00:35 56.5 °F /  13.6 °C 50.7 °F /  10.4 °C 30.5in /  1032.5hPa SE 2mph /  3.2km/h 2mph /  3.2km/h 81% 0in /  0.0mm 0 W/m2
00:40 56.5 °F /  13.6 °C 50.7 °F /  10.4 °C 30.5in /  1032.5hPa ESE 0.9mph /  1.4km/h 2mph /  3.2km/h 81% 0in /  0.0mm 0 W/m2
00:45 56.7 °F /  13.7 °C 50.5 °F /  10.3 °C 30.5in /  1032.5hPa Calm   1mph /  1.6km/h 80% 0in /  0.0mm 0 W/m2
00:50 56.5 °F /  13.6 °C 50.7 °F /  10.4 °C 30.5in /  1032.5hPa Calm   1mph /  1.6km/h 81% 0in /  0.0mm 0 W/m2
00:56 56.5 °F /  13.6 °C 50.4 °F /  10.2 °C 30.5in /  1032.5hPa SSE 0.9mph /  1.4km/h 1mph /  1.6km/h 80% 0in /  0.0mm 0 W/m2
01:01 56.5 °F /  13.6 °C 50.4 °F /  10.2 °C 30.5in /  1032.5hPa Calm   1mph /  1.6km/h 80% 0in /  0.0mm 0 W/m2
01:06 56.5 °F /  13.6 °C 50.4 °F /  10.2 °C 30.5in /  1032.5hPa East 0.9mph /  1.4km/h 1mph /  1.6km/h 80% 0in /  0.0mm 0 W/m2
01:11 56.1 °F /  13.4 °C 50.4 °F /  10.2 °C 30.5in /  1032.5hPa Calm   1mph /  1.6km/h 81% 0in /  0.0mm 0 W/m2
01:16 55.9 °F /  13.3 °C 50.2 °F /  10.1 °C 30.5in /  1032.5hPa East 0.9mph /  1.4km/h 2mph /  3.2km/h 81% 0in /  0.0mm 0 W/m2
01:21 55.6 °F /  13.1 °C 50.2 °F /  10.1 °C 30.5in /  1032.5hPa Calm     82% 0in /  0.0mm 0 W/m2
01:26 55 °F /  12.8 °C 50 °F /  10 °C 30.5in /  1032.5hPa East 0.9mph /  1.4km/h 1mph /  1.6km/h 83% 0in /  0.0mm 0 W/m2
01:31 54.9 °F /  12.7 °C 49.8 °F /  9.9 °C 30.5in /  1032.5hPa Calm   2mph /  3.2km/h 83% 0in /  0.0mm 0 W/m2
01:36 54.5 °F /  12.5 °C 49.8 °F /  9.9 °C 30.5in /  1032.5hPa South 0.9mph /  1.4km/h 1mph /  1.6km/h 84% 0in /  0.0mm 0 W/m2
01:41 54.3 °F /  12.4 °C 49.8 °F /  9.9 °C 30.5in /  1032.5hPa Calm   2mph /  3.2km/h 85% 0in /  0.0mm 0 W/m2
01:46 54.1 °F /  12.3 °C 49.8 °F /  9.9 °C 30.5in /  1032.5hPa WSW 0.9mph /  1.4km/h 3mph /  4.8km/h 85% 0in /  0.0mm 0 W/m2
01:51 54.3 °F /  12.4 °C 49.8 °F /  9.9 °C 30.5in /  1032.5hPa SW 0.9mph /  1.4km/h 3mph /  4.8km/h 85% 0in /  0.0mm 0 W/m2
01:56 54.3 °F /  12.4 °C 49.6 °F /  9.8 °C 30.5in /  1032.5hPa Calm     84% 0in /  0.0mm 0 W/m2
02:01 54.3 °F /  12.4 °C 49.6 °F /  9.8 °C 30.5in /  1032.5hPa Calm   3mph /  4.8km/h 84% 0in /  0.0mm 0 W/m2
02:06 54.3 °F /  12.4 °C 49.6 °F /  9.8 °C 30.5in /  1032.5hPa SW 0.9mph /  1.4km/h 1mph /  1.6km/h 84% 0in /  0.0mm 0 W/m2
02:11 54.3 °F /  12.4 °C 49.6 °F /  9.8 °C 30.5in /  1032.5hPa SW 0.9mph /  1.4km/h 2mph /  3.2km/h 84% 0in /  0.0mm 0 W/m2
02:16 54.1 °F /  12.3 °C 49.5 °F /  9.7 °C 30.5in /  1032.5hPa SW 0.9mph /  1.4km/h 2mph /  3.2km/h 84% 0in /  0.0mm 0 W/m2
02:21 54.1 °F /  12.3 °C 49.5 °F /  9.7 °C 30.5in /  1032.5hPa WSW 2.9mph /  4.7km/h 3mph /  4.8km/h 84% 0in /  0.0mm 0 W/m2
02:26 54.1 °F /  12.3 °C 49.5 °F /  9.7 °C 30.5in /  1032.5hPa SW 0.9mph /  1.4km/h 1mph /  1.6km/h 84% 0in /  0.0mm 0 W/m2
02:31 54.1 °F /  12.3 °C 49.5 °F /  9.7 °C 30.5in /  1032.5hPa Calm   1mph /  1.6km/h 84% 0in /  0.0mm 0 W/m2
02:36 54 °F /  12.2 °C 49.6 °F /  9.8 °C 30.5in /  1032.2hPa NW 2.9mph /  4.7km/h 3mph /  4.8km/h 85% 0in /  0.0mm 0 W/m2
02:41 54 °F /  12.2 °C 49.6 °F /  9.8 °C 30.5in /  1032.5hPa NW 0.9mph /  1.4km/h 2mph /  3.2km/h 85% 0in /  0.0mm 0 W/m2
02:46 54 °F /  12.2 °C 49.3 °F /  9.6 °C 30.5in /  1032.5hPa West 2mph /  3.2km/h 2mph /  3.2km/h 84% 0in /  0.0mm 0 W/m2
02:51 53.8 °F /  12.1 °C 49.1 °F /  9.5 °C 30.5in /  1032.5hPa West 0.9mph /  1.4km/h 1mph /  1.6km/h 84% 0in /  0.0mm 0 W/m2
02:56 53.8 °F /  12.1 °C 49.5 °F /  9.7 °C 30.5in /  1032.5hPa West 0.9mph /  1.4km/h 3mph /  4.8km/h 85% 0in /  0.0mm 0 W/m2
03:01 54.1 °F /  12.3 °C 49.5 °F /  9.7 °C 30.5in /  1032.5hPa Calm   2mph /  3.2km/h 84% 0in /  0.0mm 0 W/m2
03:06 54.1 °F /  12.3 °C 49.5 °F /  9.7 °C 30.5in /  1032.5hPa Calm   3mph /  4.8km/h 84% 0in /  0.0mm 0 W/m2
03:11 54 °F /  12.2 °C 49.3 °F /  9.6 °C 30.5in /  1032.5hPa WSW 2mph /  3.2km/h 2mph /  3.2km/h 84% 0in /  0.0mm 0 W/m2
03:16 54 °F /  12.2 °C 49.3 °F /  9.6 °C 30.5in /  1032.2hPa WSW 0.9mph /  1.4km/h 1mph /  1.6km/h 84% 0in /  0.0mm 0 W/m2
03:22 54 °F /  12.2 °C 49.3 °F /  9.6 °C 30.5in /  1032.2hPa Calm     84% 0in /  0.0mm 0 W/m2
03:27 53.8 °F /  12.1 °C 49.1 °F /  9.5 °C 30.5in /  1032.5hPa Calm   2mph /  3.2km/h 84% 0in /  0.0mm 0 W/m2
03:32 54 °F /  12.2 °C 49.3 °F /  9.6 °C 30.5in /  1032.5hPa Calm     84% 0in /  0.0mm 0 W/m2
03:37 54 °F /  12.2 °C 49.3 °F /  9.6 °C 30.5in /  1032.5hPa Calm   2mph /  3.2km/h 84% 0in /  0.0mm 0 W/m2
03:42 53.8 °F /  12.1 °C 49.1 °F /  9.5 °C 30.5in /  1032.2hPa South 2.9mph /  4.7km/h 3mph /  4.8km/h 84% 0in /  0.0mm 0 W/m2
03:47 53.6 °F /  12 °C 48.9 °F /  9.4 °C 30.5in /  1032.2hPa SW 0.9mph /  1.4km/h 2mph /  3.2km/h 84% 0in /  0.0mm 0 W/m2
03:52 53.2 °F /  11.8 °C 48.9 °F /  9.4 °C 30.5in /  1032.2hPa Calm   3mph /  4.8km/h 85% 0in /  0.0mm 0 W/m2
03:57 53.4 °F /  11.9 °C 49.1 °F /  9.5 °C 30.5in /  1032.2hPa North 0.9mph /  1.4km/h 2mph /  3.2km/h 85% 0in /  0.0mm 0 W/m2
04:02 53.6 °F /  12 °C 49.3 °F /  9.6 °C 30.5in /  1032.2hPa North 0.9mph /  1.4km/h 3mph /  4.8km/h 85% 0in /  0.0mm 0 W/m2
04:07 53.6 °F /  12 °C 48.9 °F /  9.4 °C 30.5in /  1032.2hPa Calm   1mph /  1.6km/h 84% 0in /  0.0mm 0 W/m2
04:12 53.8 °F /  12.1 °C 49.1 °F /  9.5 °C 30.5in /  1032.2hPa ENE 0.9mph /  1.4km/h 2mph /  3.2km/h 84% 0in /  0.0mm 0 W/m2
04:17 53.4 °F /  11.9 °C 48.7 °F /  9.3 °C 30.5in /  1032.2hPa ENE 2mph /  3.2km/h 2mph /  3.2km/h 84% 0in /  0.0mm 0 W/m2
04:22 53.4 °F /  11.9 °C 49.1 °F /  9.5 °C 30.5in /  1032.2hPa ENE 0.9mph /  1.4km/h 2mph /  3.2km/h 85% 0in /  0.0mm 0 W/m2
04:27 53.2 °F /  11.8 °C 48.9 °F /  9.4 °C 30.5in /  1032.5hPa Calm   1mph /  1.6km/h 85% 0in /  0.0mm 0 W/m2
04:32 53.1 °F /  11.7 °C 48.7 °F /  9.3 °C 30.5in /  1032.5hPa East 0.9mph /  1.4km/h 1mph /  1.6km/h 85% 0in /  0.0mm 0 W/m2
04:37 52.9 °F /  11.6 °C 48.7 °F /  9.3 °C 30.5in /  1032.5hPa SSW 0.9mph /  1.4km/h 1mph /  1.6km/h 86% 0in /  0.0mm 0 W/m2
04:42 52.7 °F /  11.5 °C 48.6 °F /  9.2 °C 30.5in /  1032.5hPa Calm   2mph /  3.2km/h 86% 0in /  0.0mm 0 W/m2
04:47 52.5 °F /  11.4 °C 48.4 °F /  9.1 °C 30.5in /  1032.5hPa Calm   1mph /  1.6km/h 86% 0in /  0.0mm 0 W/m2
04:52 52.5 °F /  11.4 °C 48.7 °F /  9.3 °C 30.5in /  1032.5hPa SE 0.9mph /  1.4km/h 1mph /  1.6km/h 87% 0in /  0.0mm 0 W/m2
04:57 52.3 °F /  11.3 °C 48.6 °F /  9.2 °C 30.5in /  1032.5hPa South 0.9mph /  1.4km/h 1mph /  1.6km/h 87% 0in /  0.0mm 0 W/m2
05:02 52.3 °F /  11.3 °C 48.6 °F /  9.2 °C 30.5in /  1032.5hPa South 0.9mph /  1.4km/h 1mph /  1.6km/h 87% 0in /  0.0mm 0 W/m2
05:07 52.3 °F /  11.3 °C 48.6 °F /  9.2 °C 30.5in /  1032.5hPa East 2mph /  3.2km/h 3mph /  4.8km/h 87% 0in /  0.0mm 0 W/m2
05:12 52.3 °F /  11.3 °C 48.2 °F /  9 °C 30.5in /  1032.5hPa SE 0.9mph /  1.4km/h 2mph /  3.2km/h 86% 0in /  0.0mm 0 W/m2
05:17 52.5 °F /  11.4 °C 48.4 °F /  9.1 °C 30.5in /  1032.5hPa Calm   1mph /  1.6km/h 86% 0in /  0.0mm 0 W/m2
05:22 52.5 °F /  11.4 °C 48.4 °F /  9.1 °C 30.5in /  1032.5hPa ESE 2mph /  3.2km/h 2mph /  3.2km/h 86% 0in /  0.0mm 0 W/m2
05:27 52.3 °F /  11.3 °C 48.2 °F /  9 °C 30.5in /  1032.5hPa Calm   1mph /  1.6km/h 86% 0in /  0.0mm 0 W/m2
05:32 52.2 °F /  11.2 °C 48 °F /  8.9 °C 30.5in /  1032.5hPa Calm   1mph /  1.6km/h 86% 0in /  0.0mm 0 W/m2
05:37 52 °F /  11.1 °C 48.2 °F /  9 °C 30.5in /  1032.5hPa SSE 2mph /  3.2km/h 2mph /  3.2km/h 87% 0in /  0.0mm 0 W/m2
05:42 51.6 °F /  10.9 °C 47.8 °F /  8.8 °C 30.5in /  1032.5hPa Calm   1mph /  1.6km/h 87% 0in /  0.0mm 5 W/m2
05:47 51.4 °F /  10.8 °C 48 °F /  8.9 °C 30.5in /  1032.5hPa Calm     88% 0in /  0.0mm 7 W/m2
05:52 51.4 °F /  10.8 °C 48 °F /  8.9 °C 30.5in /  1032.5hPa Calm     88% 0in /  0.0mm 9 W/m2
05:57 51.3 °F /  10.7 °C 47.8 °F /  8.8 °C 30.5in /  1032.5hPa SE 0.9mph /  1.4km/h 2mph /  3.2km/h 88% 0in /  0.0mm 12 W/m2
06:02 51.3 °F /  10.7 °C 48.2 °F /  9 °C 30.5in /  1032.5hPa Calm     89% 0in /  0.0mm 14 W/m2
06:07 51.3 °F /  10.7 °C 48.2 °F /  9 °C 30.5in /  1032.8hPa Calm     89% 0in /  0.0mm 16 W/m2
06:12 51.1 °F /  10.6 °C 48 °F /  8.9 °C 30.5in /  1032.5hPa Calm     89% 0in /  0.0mm 19 W/m2
06:17 51.1 °F /  10.6 °C 48 °F /  8.9 °C 30.5in /  1032.8hPa Calm     89% 0in /  0.0mm 21 W/m2
06:22 51.1 °F /  10.6 °C 48.2 °F /  9 °C 30.5in /  1032.8hPa Calm   1mph /  1.6km/h 90% 0in /  0.0mm 23 W/m2
06:27 51.3 °F /  10.7 °C 48.4 °F /  9.1 °C 30.5in /  1032.8hPa Calm     90% 0in /  0.0mm 25 W/m2
06:32 51.3 °F /  10.7 °C 48.4 °F /  9.1 °C 30.5in /  1032.8hPa Calm   1mph /  1.6km/h 90% 0in /  0.0mm 26 W/m2
06:37 51.3 °F /  10.7 °C 48.4 °F /  9.1 °C 30.5in /  1032.8hPa Calm     90% 0in /  0.0mm 28 W/m2
06:42 51.3 °F /  10.7 °C 48.4 °F /  9.1 °C 30.5in /  1032.8hPa Calm   2mph /  3.2km/h 90% 0in /  0.0mm 30 W/m2
06:47 51.4 °F /  10.8 °C 48.6 °F /  9.2 °C 30.5in /  1032.8hPa SE 0.9mph /  1.4km/h 1mph /  1.6km/h 90% 0in /  0.0mm 32 W/m2
06:52 51.6 °F /  10.9 °C 48.6 °F /  9.2 °C 30.5in /  1032.8hPa Calm     89% 0in /  0.0mm 33 W/m2
06:57 52 °F /  11.1 °C 48.9 °F /  9.4 °C 30.5in /  1032.8hPa West 0.9mph /  1.4km/h 3mph /  4.8km/h 89% 0in /  0.0mm 35 W/m2
07:02 52.3 °F /  11.3 °C 48.6 °F /  9.2 °C 30.5in /  1032.8hPa WNW 2mph /  3.2km/h 3mph /  4.8km/h 87% 0in /  0.0mm 39 W/m2
07:07 52.7 °F /  11.5 °C 48.9 °F /  9.4 °C 30.5in /  1032.8hPa WNW 0.9mph /  1.4km/h 4mph /  6.4km/h 87% 0in /  0.0mm 40 W/m2
07:12 53.1 °F /  11.7 °C 48.9 °F /  9.4 °C 30.5in /  1032.8hPa WSW 2mph /  3.2km/h 4mph /  6.4km/h 86% 0in /  0.0mm 42 W/m2
07:17 53.2 °F /  11.8 °C 48.9 °F /  9.4 °C 30.5in /  1033.2hPa WNW 2mph /  3.2km/h 4mph /  6.4km/h 85% 0in /  0.0mm 44 W/m2
07:22 53.4 °F /  11.9 °C 49.1 °F /  9.5 °C 30.5in /  1032.8hPa West 4mph /  6.4km/h 4mph /  6.4km/h 85% 0in /  0.0mm 47 W/m2
07:27 53.6 °F /  12 °C 48.9 °F /  9.4 °C 30.5in /  1033.2hPa WNW 4.9mph /  7.9km/h 5mph /  8km/h 84% 0in /  0.0mm 53 W/m2
07:32 54 °F /  12.2 °C 49.3 °F /  9.6 °C 30.5in /  1033.2hPa NW 0.9mph /  1.4km/h 2mph /  3.2km/h 84% 0in /  0.0mm 56 W/m2
07:37 54 °F /  12.2 °C 49.3 °F /  9.6 °C 30.5in /  1033.2hPa WNW 2mph /  3.2km/h 3mph /  4.8km/h 84% 0in /  0.0mm 63 W/m2
07:42 54.1 °F /  12.3 °C 49.5 °F /  9.7 °C 30.5in /  1032.8hPa NW 0.9mph /  1.4km/h 2mph /  3.2km/h 84% 0in /  0.0mm 125 W/m2
07:47 54.7 °F /  12.6 °C 50 °F /  10 °C 30.5in /  1032.8hPa NW 2mph /  3.2km/h 3mph /  4.8km/h 84% 0in /  0.0mm 178 W/m2
07:52 54.9 °F /  12.7 °C 49.8 °F /  9.9 °C 30.5in /  1032.8hPa Calm   2mph /  3.2km/h 83% 0in /  0.0mm 243 W/m2
07:57 55.4 °F /  13 °C 50 °F /  10 °C 30.5in /  1032.8hPa NNW 0.9mph /  1.4km/h 2mph /  3.2km/h 82% 0in /  0.0mm 248 W/m2
08:02 55.9 °F /  13.3 °C 50.2 °F /  10.1 °C 30.5in /  1032.8hPa NE 2mph /  3.2km/h 3mph /  4.8km/h 81% 0in /  0.0mm 271 W/m2
08:07 56.8 °F /  13.8 °C 50.7 °F /  10.4 °C 30.5in /  1033.2hPa East 0.9mph /  1.4km/h 3mph /  4.8km/h 80% 0in /  0.0mm 281 W/m2
08:12 57.6 °F /  14.2 °C 50.7 °F /  10.4 °C 30.5in /  1033.2hPa West 2.9mph /  4.7km/h 4mph /  6.4km/h 78% 0in /  0.0mm 281 W/m2
08:17 57.9 °F /  14.4 °C 51.1 °F /  10.6 °C 30.5in /  1033.2hPa NE 2mph /  3.2km/h 5mph /  8km/h 78% 0in /  0.0mm 311 W/m2
08:22 58.5 °F /  14.7 °C 51.3 °F /  10.7 °C 30.5in /  1033.2hPa West 0.9mph /  1.4km/h 1mph /  1.6km/h 77% 0in /  0.0mm 315 W/m2
08:27 58.6 °F /  14.8 °C 51.1 °F /  10.6 °C 30.5in /  1033.2hPa WNW 2.9mph /  4.7km/h 3mph /  4.8km/h 76% 0in /  0.0mm 336 W/m2
08:32 58.5 °F /  14.7 °C 50.9 °F /  10.5 °C 30.5in /  1033.2hPa NW 0.9mph /  1.4km/h 3mph /  4.8km/h 76% 0in /  0.0mm 352 W/m2
08:37 58.5 °F /  14.7 °C 51.3 °F /  10.7 °C 30.5in /  1033.2hPa NNW 2.9mph /  4.7km/h 4mph /  6.4km/h 77% 0in /  0.0mm 362 W/m2
08:42 58.5 °F /  14.7 °C 51.3 °F /  10.7 °C 30.5in /  1033.2hPa North 2.9mph /  4.7km/h 4mph /  6.4km/h 77% 0in /  0.0mm 390 W/m2
08:47 58.6 °F /  14.8 °C 51.4 °F /  10.8 °C 30.5in /  1033.2hPa NW 0.9mph /  1.4km/h 4mph /  6.4km/h 77% 0in /  0.0mm 390 W/m2
08:52 58.8 °F /  14.9 °C 51.3 °F /  10.7 °C 30.5in /  1033.2hPa WNW 2mph /  3.2km/h 3mph /  4.8km/h 76% 0in /  0.0mm 397 W/m2
08:57 59.2 °F /  15.1 °C 51.6 °F /  10.9 °C 30.5in /  1033.2hPa NW 2mph /  3.2km/h 4mph /  6.4km/h 76% 0in /  0.0mm 364 W/m2
09:02 59.4 °F /  15.2 °C 51.8 °F /  11 °C 30.5in /  1033.2hPa West 0.9mph /  1.4km/h 4mph /  6.4km/h 76% 0in /  0.0mm 390 W/m2
09:07 59.7 °F /  15.4 °C 51.4 °F /  10.8 °C 30.5in /  1033.2hPa ENE 2.9mph /  4.7km/h 3mph /  4.8km/h 74% 0in /  0.0mm 413 W/m2
09:12 60.3 °F /  15.7 °C 51.6 °F /  10.9 °C 30.5in /  1033.2hPa East 2mph /  3.2km/h 3mph /  4.8km/h 73% 0in /  0.0mm 446 W/m2
09:17 60.8 °F /  16 °C 52.2 °F /  11.2 °C 30.5in /  1033.2hPa NE 0.9mph /  1.4km/h 4mph /  6.4km/h 73% 0in /  0.0mm 478 W/m2
09:22 61.3 °F /  16.3 °C 51.4 °F /  10.8 °C 30.5in /  1033.2hPa NW 0.9mph /  1.4km/h 3mph /  4.8km/h 70% 0in /  0.0mm 492 W/m2
09:27 61.9 °F /  16.6 °C 52.3 °F /  11.3 °C 30.5in /  1033.5hPa East 0.9mph /  1.4km/h 4mph /  6.4km/h 71% 0in /  0.0mm 506 W/m2
09:32 62.2 °F /  16.8 °C 52 °F /  11.1 °C 30.5in /  1033.2hPa NW 0.9mph /  1.4km/h 1mph /  1.6km/h 69% 0in /  0.0mm 517 W/m2
09:37 62.4 °F /  16.9 °C 51.8 °F /  11 °C 30.5in /  1033.5hPa Calm   3mph /  4.8km/h 68% 0in /  0.0mm 515 W/m2
09:42 62.6 °F /  17 °C 52.3 °F /  11.3 °C 30.5in /  1033.5hPa WNW 4mph /  6.4km/h 7mph /  11.3km/h 69% 0in /  0.0mm 461 W/m2
09:47 62.8 °F /  17.1 °C 51.6 °F /  10.9 °C 30.5in /  1033.5hPa North 2mph /  3.2km/h 2mph /  3.2km/h 67% 0in /  0.0mm 555 W/m2
09:52 63 °F /  17.2 °C 51.4 °F /  10.8 °C 30.5in /  1033.2hPa NE 2mph /  3.2km/h 3mph /  4.8km/h 66% 0in /  0.0mm 582 W/m2
09:57 63.5 °F /  17.5 °C 51.4 °F /  10.8 °C 30.5in /  1033.2hPa NE 4.9mph /  7.9km/h 5mph /  8km/h 65% 0in /  0.0mm 141 W/m2
10:02 63.3 °F /  17.4 °C 50.5 °F /  10.3 °C 30.5in /  1033.5hPa ESE 2mph /  3.2km/h 6mph /  9.7km/h 63% 0in /  0.0mm 181 W/m2
10:07 63.1 °F /  17.3 °C 50.4 °F /  10.2 °C 30.5in /  1033.2hPa NNE 4mph /  6.4km/h 6mph /  9.7km/h 63% 0in /  0.0mm 606 W/m2
10:12 63 °F /  17.2 °C 51.1 °F /  10.6 °C 30.5in /  1033.2hPa East 0.9mph /  1.4km/h 6mph /  9.7km/h 65% 0in /  0.0mm 550 W/m2
10:17 63.1 °F /  17.3 °C 51.3 °F /  10.7 °C 30.5in /  1033.2hPa SE 4mph /  6.4km/h 6mph /  9.7km/h 65% 0in /  0.0mm 538 W/m2
10:22 63.1 °F /  17.3 °C 50.7 °F /  10.4 °C 30.5in /  1033.5hPa ENE 0.9mph /  1.4km/h 3mph /  4.8km/h 64% 0in /  0.0mm 633 W/m2
10:27 63.3 °F /  17.4 °C 50.5 °F /  10.3 °C 30.5in /  1033.5hPa ENE 0.9mph /  1.4km/h 10mph /  16.1km/h 63% 0in /  0.0mm 645 W/m2
10:32 63.3 °F /  17.4 °C 50.9 °F /  10.5 °C 30.5in /  1033.2hPa NNE 2mph /  3.2km/h 4mph /  6.4km/h 64% 0in /  0.0mm 596 W/m2
10:37 63.9 °F /  17.7 °C 51.8 °F /  11 °C 30.5in /  1033.5hPa East 2.9mph /  4.7km/h 9mph /  14.5km/h 65% 0in /  0.0mm 594 W/m2
10:42 64.2 °F /  17.9 °C 50.5 °F /  10.3 °C 30.5in /  1033.5hPa SE 0.9mph /  1.4km/h 8mph /  12.9km/h 61% 0in /  0.0mm 680 W/m2
10:47 64.6 °F /  18.1 °C 50.9 °F /  10.5 °C 30.5in /  1033.2hPa WNW 2mph /  3.2km/h 7mph /  11.3km/h 61% 0in /  0.0mm 670 W/m2
10:52 64.8 °F /  18.2 °C 50.5 °F /  10.3 °C 30.5in /  1033.2hPa NW 2.9mph /  4.7km/h 4mph /  6.4km/h 60% 0in /  0.0mm 768 W/m2
10:57 64.9 °F /  18.3 °C 50.7 °F /  10.4 °C 30.5in /  1033.5hPa NNW 2.9mph /  4.7km/h 4mph /  6.4km/h 60% 0in /  0.0mm 629 W/m2
11:02 64.8 °F /  18.2 °C 50.2 °F /  10.1 °C 30.5in /  1033.5hPa North 0.9mph /  1.4km/h 2mph /  3.2km/h 59% 0in /  0.0mm 413 W/m2
11:07 64.4 °F /  18 °C 49.8 °F /  9.9 °C 30.5in /  1033.5hPa NE 4.9mph /  7.9km/h 6mph /  9.7km/h 59% 0in /  0.0mm 745 W/m2
11:12 64.8 °F /  18.2 °C 49.1 °F /  9.5 °C 30.5in /  1033.2hPa WNW 2mph /  3.2km/h 11mph /  17.7km/h 57% 0in /  0.0mm 812 W/m2
11:17 64.9 °F /  18.3 °C 50.2 °F /  10.1 °C 30.5in /  1033.2hPa Calm   6mph /  9.7km/h 59% 0in /  0.0mm 726 W/m2
11:22 65.5 °F /  18.6 °C 50.7 °F /  10.4 °C 30.5in /  1033.2hPa NW 4mph /  6.4km/h 11mph /  17.7km/h 59% 0in /  0.0mm 715 W/m2
11:27 65.7 °F /  18.7 °C 51.4 °F /  10.8 °C 30.5in /  1033.2hPa East 4mph /  6.4km/h 7mph /  11.3km/h 60% 0in /  0.0mm 675 W/m2
11:32 65.8 °F /  18.8 °C 50.7 °F /  10.4 °C 30.5in /  1033.2hPa ESE 0.9mph /  1.4km/h 10mph /  16.1km/h 58% 0in /  0.0mm 777 W/m2
11:37 66 °F /  18.9 °C 50.4 °F /  10.2 °C 30.5in /  1033.2hPa ESE 2.9mph /  4.7km/h 5mph /  8km/h 57% 0in /  0.0mm 780 W/m2
11:43 66.6 °F /  19.2 °C 50.9 °F /  10.5 °C 30.5in /  1033.2hPa ENE 4mph /  6.4km/h 12mph /  19.3km/h 57% 0in /  0.0mm 795 W/m2
11:48 66.6 °F /  19.2 °C 50.9 °F /  10.5 °C 30.5in /  1033.2hPa WSW 0.9mph /  1.4km/h 6mph /  9.7km/h 57% 0in /  0.0mm 803 W/m2
11:53 66.7 °F /  19.3 °C 50.5 °F /  10.3 °C 30.5in /  1033.2hPa ESE 6mph /  9.7km/h 12mph /  19.3km/h 56% 0in /  0.0mm 805 W/m2
11:58 66.7 °F /  19.3 °C 50.5 °F /  10.3 °C 30.5in /  1033.2hPa Calm   3mph /  4.8km/h 56% 0in /  0.0mm 795 W/m2
12:03 67.3 °F /  19.6 °C 51.1 °F /  10.6 °C 30.5in /  1033.2hPa NNW 4.9mph /  7.9km/h 5mph /  8km/h 56% 0in /  0.0mm 823 W/m2
12:08 67.3 °F /  19.6 °C 51.4 °F /  10.8 °C 30.5in /  1033.2hPa NNW 2mph /  3.2km/h 3mph /  4.8km/h 57% 0in /  0.0mm 831 W/m2
12:13 67.6 °F /  19.8 °C 50.9 °F /  10.5 °C 30.5in /  1033.2hPa SW 2.9mph /  4.7km/h 6mph /  9.7km/h 55% 0in /  0.0mm 856 W/m2
12:18 68.2 °F /  20.1 °C 50.9 °F /  10.5 °C 30.5in /  1033.2hPa ENE 4.9mph /  7.9km/h 5mph /  8km/h 54% 0in /  0.0mm 842 W/m2
12:23 68 °F /  20 °C 50.7 °F /  10.4 °C 30.5in /  1033.2hPa NE 6mph /  9.7km/h 6mph /  9.7km/h 54% 0in /  0.0mm 830 W/m2
12:28 68.2 °F /  20.1 °C 51.4 °F /  10.8 °C 30.5in /  1033.2hPa North 4.9mph /  7.9km/h 11mph /  17.7km/h 55% 0in /  0.0mm 802 W/m2
12:33 68.5 °F /  20.3 °C 50.2 °F /  10.1 °C 30.5in /  1033.2hPa WSW 2mph /  3.2km/h 4mph /  6.4km/h 52% 0in /  0.0mm 858 W/m2
12:38 68.7 °F /  20.4 °C 50.9 °F /  10.5 °C 30.5in /  1032.8hPa East 6.9mph /  11.1km/h 10mph /  16.1km/h 53% 0in /  0.0mm 891 W/m2
12:43 68.7 °F /  20.4 °C 51.4 °F /  10.8 °C 30.5in /  1032.8hPa Calm   6mph /  9.7km/h 54% 0in /  0.0mm 874 W/m2
12:48 69.1 °F /  20.6 °C 51.3 °F /  10.7 °C 30.5in /  1032.8hPa NNE 2mph /  3.2km/h 7mph /  11.3km/h 53% 0in /  0.0mm 881 W/m2
12:53 69.3 °F /  20.7 °C 51.4 °F /  10.8 °C 30.5in /  1032.8hPa ENE 4.9mph /  7.9km/h 9mph /  14.5km/h 53% 0in /  0.0mm 868 W/m2
12:58 69.3 °F /  20.7 °C 52 °F /  11.1 °C 30.5in /  1032.8hPa NW 0.9mph /  1.4km/h 5mph /  8km/h 54% 0in /  0.0mm 865 W/m2
13:03 69.3 °F /  20.7 °C 50.9 °F /  10.5 °C 30.5in /  1032.8hPa South 0.9mph /  1.4km/h 8mph /  12.9km/h 52% 0in /  0.0mm 870 W/m2
13:08 69.1 °F /  20.6 °C 51.8 °F /  11 °C 30.5in /  1032.5hPa NE 2mph /  3.2km/h 7mph /  11.3km/h 54% 0in /  0.0mm 863 W/m2
13:14 69.4 °F /  20.8 °C 52.2 °F /  11.2 °C 30.5in /  1032.5hPa NE 2mph /  3.2km/h 4mph /  6.4km/h 54% 0in /  0.0mm 854 W/m2
13:19 69.8 °F /  21 °C 51.4 °F /  10.8 °C 30.5in /  1032.5hPa North 2mph /  3.2km/h 8mph /  12.9km/h 52% 0in /  0.0mm 881 W/m2
13:24 69.6 °F /  20.9 °C 51.3 °F /  10.7 °C 30.5in /  1032.5hPa NNW 4mph /  6.4km/h 6mph /  9.7km/h 52% 0in /  0.0mm 875 W/m2
13:29 69.6 °F /  20.9 °C 51.8 °F /  11 °C 30.5in /  1032.5hPa WNW 0.9mph /  1.4km/h 8mph /  12.9km/h 53% 0in /  0.0mm 874 W/m2
13:34 69.6 °F /  20.9 °C 51.8 °F /  11 °C 30.5in /  1032.5hPa ESE 4mph /  6.4km/h 6mph /  9.7km/h 53% 0in /  0.0mm 851 W/m2
13:39 69.4 °F /  20.8 °C 50.5 °F /  10.3 °C 30.5in /  1032.5hPa North 2.9mph /  4.7km/h 6mph /  9.7km/h 51% 0in /  0.0mm 860 W/m2
13:44 69.4 °F /  20.8 °C 51.1 °F /  10.6 °C 30.5in /  1032.5hPa ENE 2mph /  3.2km/h 6mph /  9.7km/h 52% 0in /  0.0mm 882 W/m2
13:49 69.6 °F /  20.9 °C 51.3 °F /  10.7 °C 30.5in /  1032.5hPa NNW 0.9mph /  1.4km/h 4mph /  6.4km/h 52% 0in /  0.0mm 858 W/m2
13:54 70.2 °F /  21.2 °C 52.2 °F /  11.2 °C 30.5in /  1032.5hPa East 6.9mph /  11.1km/h 7mph /  11.3km/h 53% 0in /  0.0mm 895 W/m2
13:59 70.5 °F /  21.4 °C 50.9 °F /  10.5 °C 30.5in /  1032.5hPa West 2.9mph /  4.7km/h 5mph /  8km/h 50% 0in /  0.0mm 896 W/m2
14:04 70.5 °F /  21.4 °C 52 °F /  11.1 °C 30.5in /  1032.5hPa East 6.9mph /  11.1km/h 8mph /  12.9km/h 52% 0in /  0.0mm 858 W/m2
14:09 70.3 °F /  21.3 °C 51.8 °F /  11 °C 30.5in /  1032.2hPa East 4mph /  6.4km/h 4mph /  6.4km/h 52% 0in /  0.0mm 881 W/m2
14:14 70.9 °F /  21.6 °C 52.3 °F /  11.3 °C 30.5in /  1032.2hPa East 0.9mph /  1.4km/h 6mph /  9.7km/h 52% 0in /  0.0mm 872 W/m2
14:19 71.2 °F /  21.8 °C 52.2 °F /  11.2 °C 30.5in /  1032.2hPa NNW 4mph /  6.4km/h 6mph /  9.7km/h 51% 0in /  0.0mm 831 W/m2
14:24 71.1 °F /  21.7 °C 50.9 °F /  10.5 °C 30.5in /  1032.2hPa NW 0.9mph /  1.4km/h 4mph /  6.4km/h 49% 0in /  0.0mm 858 W/m2
14:29 71.2 °F /  21.8 °C 51.6 °F /  10.9 °C 30.5in /  1032.2hPa NE 4.9mph /  7.9km/h 7mph /  11.3km/h 50% 0in /  0.0mm 854 W/m2
14:34 71.6 °F /  22 °C 51.4 °F /  10.8 °C 30.5in /  1032.2hPa NE 2mph /  3.2km/h 4mph /  6.4km/h 49% 0in /  0.0mm 904 W/m2
14:39 72 °F /  22.2 °C 52.9 °F /  11.6 °C 30.5in /  1031.8hPa SE 0.9mph /  1.4km/h 7mph /  11.3km/h 51% 0in /  0.0mm 888 W/m2
14:44 72.1 °F /  22.3 °C 50.7 °F /  10.4 °C 30.5in /  1031.8hPa NNW 8.9mph /  14.3km/h 11mph /  17.7km/h 47% 0in /  0.0mm 904 W/m2
14:49 72.3 °F /  22.4 °C 52.2 °F /  11.2 °C 30.5in /  1031.8hPa SSE 0.9mph /  1.4km/h 3mph /  4.8km/h 49% 0in /  0.0mm 833 W/m2
14:54 72.7 °F /  22.6 °C 50.7 °F /  10.4 °C 30.5in /  1031.8hPa SW 0.9mph /  1.4km/h 11mph /  17.7km/h 46% 0in /  0.0mm 837 W/m2
14:59 72.5 °F /  22.5 °C 52.3 °F /  11.3 °C 30.5in /  1031.8hPa ENE 2mph /  3.2km/h 3mph /  4.8km/h 49% 0in /  0.0mm 849 W/m2
15:04 72.7 °F /  22.6 °C 50.7 °F /  10.4 °C 30.5in /  1031.8hPa West 2.9mph /  4.7km/h 4mph /  6.4km/h 46% 0in /  0.0mm 847 W/m2
15:09 73 °F /  22.8 °C 50.4 °F /  10.2 °C 30.5in /  1031.8hPa NNE 4mph /  6.4km/h 6mph /  9.7km/h 45% 0in /  0.0mm 853 W/m2
15:14 73.2 °F /  22.9 °C 50 °F /  10 °C 30.5in /  1031.8hPa West 2.9mph /  4.7km/h 6mph /  9.7km/h 44% 0in /  0.0mm 879 W/m2
15:19 73.2 °F /  22.9 °C 50.5 °F /  10.3 °C 30.5in /  1031.8hPa WNW 2.9mph /  4.7km/h 4mph /  6.4km/h 45% 0in /  0.0mm 884 W/m2
15:24 72.9 °F /  22.7 °C 50.9 °F /  10.5 °C 30.5in /  1031.8hPa East 2mph /  3.2km/h 4mph /  6.4km/h 46% 0in /  0.0mm 153 W/m2
15:29 72.7 °F /  22.6 °C 51.3 °F /  10.7 °C 30.5in /  1031.8hPa South 0.9mph /  1.4km/h 3mph /  4.8km/h 47% 0in /  0.0mm 842 W/m2
15:34 73.2 °F /  22.9 °C 51.3 °F /  10.7 °C 30.5in /  1031.5hPa East 8.9mph /  14.3km/h 9mph /  14.5km/h 46% 0in /  0.0mm 858 W/m2
15:39 73.2 °F /  22.9 °C 49.5 °F /  9.7 °C 30.5in /  1031.5hPa WNW 4mph /  6.4km/h 8mph /  12.9km/h 43% 0in /  0.0mm 830 W/m2
15:44 73.4 °F /  23 °C 50.7 °F /  10.4 °C 30.5in /  1031.8hPa East 6.9mph /  11.1km/h 7mph /  11.3km/h 45% 0in /  0.0mm 800 W/m2
15:50 73.8 °F /  23.2 °C 51.1 °F /  10.6 °C 30.5in /  1031.5hPa SE 2.9mph /  4.7km/h 4mph /  6.4km/h 45% 0in /  0.0mm 789 W/m2
15:55 73.9 °F /  23.3 °C 51.3 °F /  10.7 °C 30.5in /  1031.5hPa ENE 2mph /  3.2km/h 2mph /  3.2km/h 45% 0in /  0.0mm 810 W/m2
16:00 73.9 °F /  23.3 °C 48.7 °F /  9.3 °C 30.5in /  1031.5hPa East 8.9mph /  14.3km/h 13mph /  20.9km/h 41% 0in /  0.0mm 810 W/m2
16:05 73.8 °F /  23.2 °C 48.6 °F /  9.2 °C 30.5in /  1031.5hPa ESE 2mph /  3.2km/h 6mph /  9.7km/h 41% 0in /  0.0mm 751 W/m2
16:10 74.1 °F /  23.4 °C 48.9 °F /  9.4 °C 30.5in /  1031.5hPa ESE 2mph /  3.2km/h 5mph /  8km/h 41% 0in /  0.0mm 742 W/m2
16:15 74.5 °F /  23.6 °C 48.6 °F /  9.2 °C 30.5in /  1031.5hPa WNW 2mph /  3.2km/h 3mph /  4.8km/h 40% 0in /  0.0mm 744 W/m2
16:20 74.8 °F /  23.8 °C 50.2 °F /  10.1 °C 30.5in /  1031.5hPa NNW 2.9mph /  4.7km/h 5mph /  8km/h 42% 0in /  0.0mm 747 W/m2
16:25 75.2 °F /  24 °C 48.6 °F /  9.2 °C 30.5in /  1031.5hPa ESE 6.9mph /  11.1km/h 8mph /  12.9km/h 39% 0in /  0.0mm 735 W/m2
16:30 74.8 °F /  23.8 °C 49.6 °F /  9.8 °C 30.5in /  1031.2hPa WNW 2mph /  3.2km/h 7mph /  11.3km/h 41% 0in /  0.0mm 715 W/m2
16:35 74.8 °F /  23.8 °C 50.9 °F /  10.5 °C 30.5in /  1031.2hPa WNW 2.9mph /  4.7km/h 4mph /  6.4km/h 43% 0in /  0.0mm 666 W/m2
16:40 75 °F /  23.9 °C 51.1 °F /  10.6 °C 30.5in /  1031.2hPa East 2.9mph /  4.7km/h 7mph /  11.3km/h 43% 0in /  0.0mm 698 W/m2
16:45 75 °F /  23.9 °C 49.6 °F /  9.8 °C 30.5in /  1031.2hPa East 4mph /  6.4km/h 5mph /  8km/h 41% 0in /  0.0mm 714 W/m2
16:50 75.4 °F /  24.1 °C 50 °F /  10 °C 30.5in /  1031.2hPa East 6mph /  9.7km/h 13mph /  20.9km/h 41% 0in /  0.0mm 691 W/m2
16:55 75.4 °F /  24.1 °C 48.7 °F /  9.3 °C 30.5in /  1031.2hPa NE 2mph /  3.2km/h 5mph /  8km/h 39% 0in /  0.0mm 684 W/m2
17:00 75.6 °F /  24.2 °C 48.9 °F /  9.4 °C 30.5in /  1031.2hPa WNW 4.9mph /  7.9km/h 6mph /  9.7km/h 39% 0in /  0.0mm 680 W/m2
17:05 75.6 °F /  24.2 °C 48.9 °F /  9.4 °C 30.5in /  1031.2hPa ENE 0.9mph /  1.4km/h 6mph /  9.7km/h 39% 0in /  0.0mm 696 W/m2
17:10 75.7 °F /  24.3 °C 49.6 °F /  9.8 °C 30.5in /  1031.2hPa ESE 8.1mph /  13km/h 8mph /  12.9km/h 40% 0in /  0.0mm 663 W/m2
17:15 75.4 °F /  24.1 °C 50 °F /  10 °C 30.5in /  1031.2hPa East 4mph /  6.4km/h 8mph /  12.9km/h 41% 0in /  0.0mm 190 W/m2
17:20 74.8 °F /  23.8 °C 49.6 °F /  9.8 °C 30.5in /  1031.2hPa ENE 2mph /  3.2km/h 7mph /  11.3km/h 41% 0in /  0.0mm 680 W/m2
17:25 74.8 °F /  23.8 °C 50.2 °F /  10.1 °C 30.5in /  1031.2hPa Calm   1mph /  1.6km/h 42% 0in /  0.0mm 668 W/m2
17:30 75.4 °F /  24.1 °C 50 °F /  10 °C 30.5in /  1031.2hPa ESE 10.1mph /  16.3km/h 11mph /  17.7km/h 41% 0in /  0.0mm 534 W/m2
17:35 75.2 °F /  24 °C 47.8 °F /  8.8 °C 30.5in /  1031.2hPa NNW 2.9mph /  4.7km/h 6mph /  9.7km/h 38% 0in /  0.0mm 570 W/m2
17:41 75.4 °F /  24.1 °C 48 °F /  8.9 °C 30.5in /  1031.2hPa ENE 8.9mph /  14.3km/h 10mph /  16.1km/h 38% 0in /  0.0mm 563 W/m2
17:46 75.4 °F /  24.1 °C 48 °F /  8.9 °C 30.4in /  1030.8hPa West 4mph /  6.4km/h 9mph /  14.5km/h 38% 0in /  0.0mm 541 W/m2
17:51 75.6 °F /  24.2 °C 48.9 °F /  9.4 °C 30.4in /  1030.8hPa WNW 2mph /  3.2km/h 10mph /  16.1km/h 39% 0in /  0.0mm 527 W/m2
17:56 75.6 °F /  24.2 °C 48.9 °F /  9.4 °C 30.4in /  1030.8hPa Calm   4mph /  6.4km/h 39% 0in /  0.0mm 448 W/m2
18:01 75.7 °F /  24.3 °C 47.7 °F /  8.7 °C 30.4in /  1030.8hPa North 4mph /  6.4km/h 12mph /  19.3km/h 37% 0in /  0.0mm 461 W/m2
18:06 75.6 °F /  24.2 °C 49.5 °F /  9.7 °C 30.4in /  1030.8hPa NE 0.9mph /  1.4km/h 3mph /  4.8km/h 40% 0in /  0.0mm 471 W/m2
18:11 75.7 °F /  24.3 °C 48.4 °F /  9.1 °C 30.4in /  1030.8hPa NW 2mph /  3.2km/h 12mph /  19.3km/h 38% 0in /  0.0mm 476 W/m2
18:16 75.9 °F /  24.4 °C 48.6 °F /  9.2 °C 30.4in /  1030.8hPa ESE 0.9mph /  1.4km/h 4mph /  6.4km/h 38% 0in /  0.0mm 441 W/m2
18:21 76.3 °F /  24.6 °C 49.5 °F /  9.7 °C 30.4in /  1030.8hPa East 2.9mph /  4.7km/h 10mph /  16.1km/h 39% 0in /  0.0mm 434 W/m2
18:26 76.1 °F /  24.5 °C 49.3 °F /  9.6 °C 30.4in /  1030.8hPa East 4mph /  6.4km/h 4mph /  6.4km/h 39% 0in /  0.0mm 394 W/m2
18:31 75.9 °F /  24.4 °C 47.8 °F /  8.8 °C 30.4in /  1030.8hPa NNW 2.9mph /  4.7km/h 10mph /  16.1km/h 37% 0in /  0.0mm 364 W/m2
18:36 75.7 °F /  24.3 °C 48.4 °F /  9.1 °C 30.4in /  1030.8hPa NE 0.9mph /  1.4km/h 9mph /  14.5km/h 38% 0in /  0.0mm 346 W/m2
18:41 75.6 °F /  24.2 °C 48.2 °F /  9 °C 30.4in /  1030.8hPa ENE 2mph /  3.2km/h 6mph /  9.7km/h 38% 0in /  0.0mm 309 W/m2
18:46 75.6 °F /  24.2 °C 47.5 °F /  8.6 °C 30.4in /  1030.8hPa NE 4mph /  6.4km/h 12mph /  19.3km/h 37% 0in /  0.0mm 294 W/m2
18:51 75.2 °F /  24 °C 49.3 °F /  9.6 °C 30.4in /  1030.8hPa ENE 6mph /  9.7km/h 7mph /  11.3km/h 40% 0in /  0.0mm 274 W/m2
18:56 75 °F /  23.9 °C 48.4 °F /  9.1 °C 30.4in /  1030.8hPa SSE 2mph /  3.2km/h 11mph /  17.7km/h 39% 0in /  0.0mm 255 W/m2
19:01 75.2 °F /  24 °C 48.6 °F /  9.2 °C 30.4in /  1030.8hPa NNW 4mph /  6.4km/h 5mph /  8km/h 39% 0in /  0.0mm 244 W/m2
19:06 75.6 °F /  24.2 °C 48.2 °F /  9 °C 30.4in /  1030.8hPa NE 2mph /  3.2km/h 3mph /  4.8km/h 38% 0in /  0.0mm 237 W/m2
19:11 75.6 °F /  24.2 °C 48.9 °F /  9.4 °C 30.4in /  1030.8hPa Calm   2mph /  3.2km/h 39% 0in /  0.0mm 251 W/m2
19:16 75.4 °F /  24.1 °C 48.7 °F /  9.3 °C 30.4in /  1030.8hPa WNW 0.9mph /  1.4km/h 5mph /  8km/h 39% 0in /  0.0mm 260 W/m2
19:21 75 °F /  23.9 °C 47.7 °F /  8.7 °C 30.4in /  1030.8hPa ENE 4.9mph /  7.9km/h 5mph /  8km/h 38% 0in /  0.0mm 260 W/m2
19:26 75 °F /  23.9 °C 47.7 °F /  8.7 °C 30.4in /  1030.8hPa SSE 2mph /  3.2km/h 8mph /  12.9km/h 38% 0in /  0.0mm 251 W/m2
19:31 74.8 °F /  23.8 °C 48.2 °F /  9 °C 30.4in /  1030.8hPa Calm   3mph /  4.8km/h 39% 0in /  0.0mm 236 W/m2
19:36 74.7 °F /  23.7 °C 48.7 °F /  9.3 °C 30.4in /  1030.8hPa South 0.9mph /  1.4km/h 10mph /  16.1km/h 40% 0in /  0.0mm 220 W/m2
19:41 74.3 °F /  23.5 °C 48.4 °F /  9.1 °C 30.4in /  1030.8hPa NE 2mph /  3.2km/h 9mph /  14.5km/h 40% 0in /  0.0mm 178 W/m2
19:46 74.1 °F /  23.4 °C 48.2 °F /  9 °C 30.4in /  1030.8hPa NE 0.9mph /  1.4km/h 3mph /  4.8km/h 40% 0in /  0.0mm 149 W/m2
19:51 74.1 °F /  23.4 °C 48.2 °F /  9 °C 30.4in /  1030.8hPa East 2mph /  3.2km/h 7mph /  11.3km/h 40% 0in /  0.0mm 139 W/m2
19:56 73.9 °F /  23.3 °C 48 °F /  8.9 °C 30.4in /  1030.8hPa East 2mph /  3.2km/h 3mph /  4.8km/h 40% 0in /  0.0mm 137 W/m2
20:01 73.8 °F /  23.2 °C 48 °F /  8.9 °C 30.4in /  1030.8hPa NNE 0.9mph /  1.4km/h 4mph /  6.4km/h 40% 0in /  0.0mm 135 W/m2
20:06 73.6 °F /  23.1 °C 47.8 °F /  8.8 °C 30.4in /  1030.8hPa ESE 11mph /  17.7km/h 11mph /  17.7km/h 40% 0in /  0.0mm 123 W/m2
20:11 73 °F /  22.8 °C 47.3 °F /  8.5 °C 30.4in /  1030.8hPa NE 0.9mph /  1.4km/h 4mph /  6.4km/h 40% 0in /  0.0mm 111 W/m2
20:16 72.9 °F /  22.7 °C 47.1 °F /  8.4 °C 30.4in /  1030.8hPa SE 4.9mph /  7.9km/h 6mph /  9.7km/h 40% 0in /  0.0mm 100 W/m2
20:21 72.3 °F /  22.4 °C 46.6 °F /  8.1 °C 30.4in /  1030.8hPa East 2mph /  3.2km/h 4mph /  6.4km/h 40% 0in /  0.0mm 86 W/m2
20:26 72.1 °F /  22.3 °C 47.1 °F /  8.4 °C 30.5in /  1031.2hPa ENE 2mph /  3.2km/h 3mph /  4.8km/h 41% 0in /  0.0mm 77 W/m2
20:31 71.8 °F /  22.1 °C 46.8 °F /  8.2 °C 30.4in /  1030.8hPa East 2mph /  3.2km/h 7mph /  11.3km/h 41% 0in /  0.0mm 65 W/m2
20:36 71.6 °F /  22 °C 47.3 °F /  8.5 °C 30.5in /  1031.2hPa Calm   2mph /  3.2km/h 42% 0in /  0.0mm 49 W/m2
20:41 71.4 °F /  21.9 °C 48.4 °F /  9.1 °C 30.5in /  1031.2hPa East 2.9mph /  4.7km/h 7mph /  11.3km/h 44% 0in /  0.0mm 42 W/m2
20:46 71.1 °F /  21.7 °C 47.5 °F /  8.6 °C 30.5in /  1031.2hPa Calm   3mph /  4.8km/h 43% 0in /  0.0mm 42 W/m2
20:51 70.9 °F /  21.6 °C 47.8 °F /  8.8 °C 30.5in /  1031.2hPa Calm   6mph /  9.7km/h 44% 0in /  0.0mm 33 W/m2
20:56 70.3 °F /  21.3 °C 46.8 °F /  8.2 °C 30.5in /  1031.2hPa East 2mph /  3.2km/h 3mph /  4.8km/h 43% 0in /  0.0mm 25 W/m2
21:01 70.2 °F /  21.2 °C 47.8 °F /  8.8 °C 30.5in /  1031.2hPa NE 0.9mph /  1.4km/h 2mph /  3.2km/h 45% 0in /  0.0mm 18 W/m2
21:06 69.4 °F /  20.8 °C 46.6 °F /  8.1 °C 30.5in /  1031.2hPa NNE 0.9mph /  1.4km/h 3mph /  4.8km/h 44% 0in /  0.0mm 11 W/m2
21:12 69.3 °F /  20.7 °C 46.4 °F /  8 °C 30.5in /  1031.5hPa SE 2mph /  3.2km/h 3mph /  4.8km/h 44% 0in /  0.0mm 9 W/m2
21:17 68.7 °F /  20.4 °C 45.9 °F /  7.7 °C 30.5in /  1031.5hPa ENE 0.9mph /  1.4km/h 3mph /  4.8km/h 44% 0in /  0.0mm 7 W/m2
21:22 68.5 °F /  20.3 °C 46.4 °F /  8 °C 30.5in /  1031.5hPa Calm   1mph /  1.6km/h 45% 0in /  0.0mm 5 W/m2
21:27 68.2 °F /  20.1 °C 47.7 °F /  8.7 °C 30.5in /  1031.5hPa Calm   2mph /  3.2km/h 48% 0in /  0.0mm 0 W/m2
21:32 67.6 °F /  19.8 °C 47.8 °F /  8.8 °C 30.5in /  1031.5hPa NE 0.9mph /  1.4km/h 2mph /  3.2km/h 49% 0in /  0.0mm 0 W/m2
21:37 67.1 °F /  19.5 °C 48.4 °F /  9.1 °C 30.5in /  1031.5hPa Calm     51% 0in /  0.0mm 0 W/m2
21:42 66.4 °F /  19.1 °C 48.7 °F /  9.3 °C 30.5in /  1031.5hPa Calm   1mph /  1.6km/h 53% 0in /  0.0mm 0 W/m2
21:47 65.7 °F /  18.7 °C 48.6 °F /  9.2 °C 30.5in /  1031.8hPa NE 0.9mph /  1.4km/h 1mph /  1.6km/h 54% 0in /  0.0mm 0 W/m2
21:52 64.9 °F /  18.3 °C 48.4 °F /  9.1 °C 30.5in /  1031.8hPa NE 0.9mph /  1.4km/h 1mph /  1.6km/h 55% 0in /  0.0mm 0 W/m2
21:57 64.4 °F /  18 °C 47.8 °F /  8.8 °C 30.5in /  1031.8hPa NE 0.9mph /  1.4km/h 3mph /  4.8km/h 55% 0in /  0.0mm 0 W/m2
22:02 63.9 °F /  17.7 °C 48.4 °F /  9.1 °C 30.5in /  1031.8hPa Calm   1mph /  1.6km/h 57% 0in /  0.0mm 0 W/m2
22:07 63.5 °F /  17.5 °C 48.9 °F /  9.4 °C 30.5in /  1031.8hPa Calm   3mph /  4.8km/h 59% 0in /  0.0mm 0 W/m2
22:12 63.1 °F /  17.3 °C 49.1 °F /  9.5 °C 30.5in /  1031.8hPa Calm   1mph /  1.6km/h 60% 0in /  0.0mm 0 W/m2
22:17 62.8 °F /  17.1 °C 49.1 °F /  9.5 °C 30.5in /  1031.8hPa NW 0.9mph /  1.4km/h 1mph /  1.6km/h 61% 0in /  0.0mm 0 W/m2
22:22 62.2 °F /  16.8 °C 48.6 °F /  9.2 °C 30.5in /  1032.2hPa Calm     61% 0in /  0.0mm 0 W/m2
22:27 61.9 °F /  16.6 °C 48.7 °F /  9.3 °C 30.5in /  1031.8hPa NW 0.9mph /  1.4km/h 1mph /  1.6km/h 62% 0in /  0.0mm 0 W/m2
22:32 61.3 °F /  16.3 °C 49.1 °F /  9.5 °C 30.5in /  1032.2hPa Calm   2mph /  3.2km/h 64% 0in /  0.0mm 0 W/m2
22:37 61.2 °F /  16.2 °C 48.9 °F /  9.4 °C 30.5in /  1032.2hPa WSW 0.9mph /  1.4km/h 2mph /  3.2km/h 64% 0in /  0.0mm 0 W/m2
22:42 60.8 °F /  16 °C 48.9 °F /  9.4 °C 30.5in /  1032.2hPa Calm   1mph /  1.6km/h 65% 0in /  0.0mm 0 W/m2
22:47 60.4 °F /  15.8 °C 49.1 °F /  9.5 °C 30.5in /  1032.2hPa WSW 0.9mph /  1.4km/h 2mph /  3.2km/h 66% 0in /  0.0mm 0 W/m2
22:52 60.1 °F /  15.6 °C 48.7 °F /  9.3 °C 30.5in /  1032.2hPa WSW 0.9mph /  1.4km/h 1mph /  1.6km/h 66% 0in /  0.0mm 0 W/m2
22:57 59.9 °F /  15.5 °C 48.9 °F /  9.4 °C 30.5in /  1032.2hPa WSW 0.9mph /  1.4km/h 1mph /  1.6km/h 67% 0in /  0.0mm 0 W/m2
23:02 59.7 °F /  15.4 °C 48.7 °F /  9.3 °C 30.5in /  1032.2hPa WSW 0.9mph /  1.4km/h 1mph /  1.6km/h 67% 0in /  0.0mm 0 W/m2
23:07 59.5 °F /  15.3 °C 48.6 °F /  9.2 °C 30.5in /  1032.2hPa WSW 0.9mph /  1.4km/h 2mph /  3.2km/h 67% 0in /  0.0mm 0 W/m2
23:13 59.5 °F /  15.3 °C 48.6 °F /  9.2 °C 30.5in /  1032.2hPa WSW 0.9mph /  1.4km/h   67% 0in /  0.0mm 0 W/m2
23:18 59.2 °F /  15.1 °C 49.1 °F /  9.5 °C 30.5in /  1032.2hPa South 0.9mph /  1.4km/h 2mph /  3.2km/h 69% 0in /  0.0mm 0 W/m2
23:23 58.8 °F /  14.9 °C 48.7 °F /  9.3 °C 30.5in /  1032.5hPa South 0.9mph /  1.4km/h 1mph /  1.6km/h 69% 0in /  0.0mm 0 W/m2
23:28 58.6 °F /  14.8 °C 48.9 °F /  9.4 °C 30.5in /  1032.2hPa South 0.9mph /  1.4km/h 1mph /  1.6km/h 70% 0in /  0.0mm 0 W/m2
23:33 58.5 °F /  14.7 °C 48.7 °F /  9.3 °C 30.5in /  1032.5hPa Calm     70% 0in /  0.0mm 0 W/m2
23:38 58.3 °F /  14.6 °C 48.6 °F /  9.2 °C 30.5in /  1032.2hPa South 0.9mph /  1.4km/h 1mph /  1.6km/h 70% 0in /  0.0mm 0 W/m2
23:43 57.9 °F /  14.4 °C 48.6 °F /  9.2 °C 30.5in /  1032.5hPa Calm   2mph /  3.2km/h 71% 0in /  0.0mm 0 W/m2
23:48 57.7 °F /  14.3 °C 48.4 °F /  9.1 °C 30.5in /  1032.5hPa South 0.9mph /  1.4km/h 2mph /  3.2km/h 71% 0in /  0.0mm 0 W/m2
23:53 57.6 °F /  14.2 °C 48.2 °F /  9 °C 30.5in /  1032.5hPa South 0.9mph /  1.4km/h 1mph /  1.6km/h 71% 0in /  0.0mm 0 W/m2
23:58 57.4 °F /  14.1 °C 48 °F /  8.9 °C 30.5in /  1032.5hPa Calm     71% 0in /  0.0mm 0 W/m2
Juneau County Weather
Compliments of Weather Underground - 2 mb